createdAt,value
2023-03-04T12:01:22.741Z,76.342773
2023-03-04T12:02:18.842Z,76.989746
2023-03-04T12:03:16.956Z,79.467773
2023-03-04T12:04:16.925Z,81.201172
2023-03-04T12:05:17.895Z,79.772949
2023-03-04T12:06:16.765Z,79.980469
2023-03-04T12:07:17.004Z,79.772949
2023-03-04T12:08:16.888Z,82.281494
2023-03-04T12:09:16.728Z,80.81665
2023-03-04T12:10:16.701Z,81.793213
2023-03-04T12:11:16.838Z,79.35791
2023-03-04T12:12:16.838Z,78.204346
2023-03-04T12:13:16.668Z,80.401611
2023-03-04T12:14:17.700Z,77.661133
2023-03-04T12:15:17.805Z,77.758789
2023-03-04T12:16:16.733Z,78.814697
2023-03-04T12:17:16.713Z,80.706787
2023-03-04T12:18:16.751Z,81.47583
2023-03-04T12:19:16.883Z,79.919434
2023-03-04T12:20:18.543Z,79.614258
2023-03-04T12:21:16.625Z,77.380371
2023-03-04T12:22:17.658Z,76.672363
2023-03-04T12:23:16.729Z,78.094482
2023-03-04T12:24:17.565Z,77.484131
2023-03-04T12:25:18.794Z,77.282715
2023-03-04T12:26:16.622Z,78.131104
2023-03-04T12:27:16.609Z,80.26123
2023-03-04T12:28:16.579Z,77.722168
2023-03-04T12:29:16.487Z,77.758789
2023-03-04T12:30:16.735Z,79.827881
2023-03-04T12:31:19.388Z,79.418945
2023-03-04T12:32:16.858Z,78.546143
2023-03-04T12:33:16.454Z,79.901123
2023-03-04T12:34:16.794Z,82.647705
2023-03-04T12:35:16.664Z,81.329346
2023-03-04T12:36:16.620Z,79.937744
2023-03-04T12:37:16.526Z,79.980469
2023-03-04T12:38:16.779Z,82.727051
2023-03-04T12:39:16.681Z,82.049561
2023-03-04T12:40:16.776Z,84.393311
2023-03-04T12:41:16.810Z,84.594727
2023-03-04T12:42:16.762Z,85.473633
2023-03-04T12:43:16.640Z,84.967041
2023-03-04T12:44:16.540Z,85.064697
